Time;durP1;ratioP1;P1;durP2;ratioP2;P2;SDS_P1;SDS_P2;PMS_P1;PMS_P2;Temp;Humidity;BMP_temperature;BMP_pressure;BME280_temperature;BME280_humidity;BME280_pressure;Samples;Min_cycle;Max_cycle;Signal;HPM_P1;HPM_P2
2022/07/08 00:00:33;;;;;;;2.55;0.90;;;;;;;;;;5074270;28;20896;-80
2022/07/08 00:02:59;;;;;;;0.77;0.75;;;;;;;;;;5074585;28;20391;-80
2022/07/08 00:05:25;;;;;;;1.33;0.90;;;;;;;;;;5071238;28;20896;-80
2022/07/08 00:07:51;;;;;;;1.33;0.68;;;;;;;;;;5072555;28;20443;-80
2022/07/08 00:10:17;;;;;;;1.13;0.90;;;;;;;;;;5074185;28;20403;-80
2022/07/08 00:12:43;;;;;;;0.80;0.80;;;;;;;;;;5074187;28;20372;-80
2022/07/08 00:15:10;;;;;;;1.17;0.85;;;;;;;;;;5074229;28;20498;-80
2022/07/08 00:17:36;;;;;;;0.90;0.90;;;;;;;;;;5074167;28;20391;-80
2022/07/08 00:20:02;;;;;;;0.82;0.82;;;;;;;;;;5074459;28;20399;-82
2022/07/08 00:22:28;;;;;;;1.38;0.90;;;;;;;;;;5074008;28;20379;-80
2022/07/08 00:24:54;;;;;;;1.23;0.90;;;;;;;;;;5072667;28;20384;-80
2022/07/08 00:27:20;;;;;;;1.33;1.00;;;;;;;;;;5073409;28;20953;-80
2022/07/08 00:29:46;;;;;;;1.30;1.20;;;;;;;;;;5073898;28;20375;-80
2022/07/08 00:32:12;;;;;;;1.60;1.30;;;;;;;;;;5073879;28;20481;-80
2022/07/08 00:34:38;;;;;;;1.30;1.20;;;;;;;;;;5073662;28;20884;-80
2022/07/08 00:37:04;;;;;;;1.70;1.00;;;;;;;;;;5073845;28;20380;-80
2022/07/08 00:39:30;;;;;;;2.13;0.93;;;;;;;;;;5073675;28;20526;-80
2022/07/08 00:41:57;;;;;;;2.25;1.23;;;;;;;;;;5073482;28;20387;-80
2022/07/08 00:44:32;;;;;;;2.17;1.30;;;;;;;;;;5073011;28;20409;-80
2022/07/08 00:46:58;;;;;;;1.95;1.35;;;;;;;;;;5091733;28;20879;-80
2022/07/08 00:49:24;;;;;;;1.80;1.33;;;;;;;;;;5093519;28;20393;-80
2022/07/08 00:51:50;;;;;;;1.65;1.30;;;;;;;;;;5093668;28;20896;-80
2022/07/08 00:54:21;;;;;;;1.48;1.20;;;;;;;;;;5093612;28;20373;-80
2022/07/08 00:56:47;;;;;;;1.17;1.08;;;;;;;;;;5093653;28;20735;-79
2022/07/08 00:59:13;;;;;;;1.73;1.30;;;;;;;;;;5093771;28;20787;-80
2022/07/08 01:01:39;;;;;;;1.67;1.38;;;;;;;;;;5080959;28;20375;-80
2022/07/08 01:04:06;;;;;;;1.83;1.40;;;;;;;;;;5066106;28;20388;-80
2022/07/08 01:06:32;;;;;;;1.90;1.20;;;;;;;;;;5073170;28;20459;-79
2022/07/08 01:08:58;;;;;;;1.73;1.40;;;;;;;;;;5073125;28;20403;-79
2022/07/08 01:11:26;;;;;;;2.08;1.50;;;;;;;;;;5073209;28;20738;-80
2022/07/08 01:13:52;;;;;;;3.65;2.28;;;;;;;;;;5072825;28;20389;-80
2022/07/08 01:16:18;;;;;;;3.03;2.30;;;;;;;;;;5072950;28;20384;-80
2022/07/08 01:18:44;;;;;;;2.23;2.00;;;;;;;;;;5072878;28;20471;-80
2022/07/08 01:21:10;;;;;;;3.42;2.20;;;;;;;;;;5072885;28;20402;-80
2022/07/08 01:23:36;;;;;;;4.78;2.60;;;;;;;;;;5072719;28;20865;-79
2022/07/08 01:26:08;;;;;;;2.45;2.10;;;;;;;;;;5072548;28;20415;-80
2022/07/08 01:28:34;;;;;;;2.05;1.80;;;;;;;;;;5083723;28;20972;-79
2022/07/08 01:31:00;;;;;;;1.93;1.50;;;;;;;;;;5092912;28;20390;-80
2022/07/08 01:33:26;;;;;;;3.10;1.45;;;;;;;;;;5092939;28;20381;-80
2022/07/08 01:35:52;;;;;;;1.35;1.25;;;;;;;;;;5092850;28;20413;-80
2022/07/08 01:38:18;;;;;;;1.63;1.35;;;;;;;;;;5092105;28;20385;-80
2022/07/08 01:40:44;;;;;;;1.60;1.20;;;;;;;;;;5092884;28;20405;-80
2022/07/08 01:43:13;;;;;;;1.45;1.27;;;;;;;;;;5092749;28;20785;-80
2022/07/08 01:45:39;;;;;;;1.40;1.10;;;;;;;;;;5092983;28;20378;-80
2022/07/08 01:48:05;;;;;;;1.88;1.40;;;;;;;;;;5092645;28;20410;-79
2022/07/08 01:50:31;;;;;;;2.05;1.23;;;;;;;;;;5093185;28;20732;-79
2022/07/08 01:52:57;;;;;;;2.28;1.50;;;;;;;;;;5092617;28;20378;-79
2022/07/08 01:55:24;;;;;;;2.20;1.30;;;;;;;;;;5092601;28;20393;-80
2022/07/08 01:57:50;;;;;;;1.77;1.20;;;;;;;;;;5092816;28;20381;-79
2022/07/08 02:00:16;;;;;;;1.30;1.20;;;;;;;;;;5091794;28;20404;-79
2022/07/08 02:02:42;;;;;;;1.30;1.20;;;;;;;;;;5072362;28;20383;-80
2022/07/08 02:05:09;;;;;;;1.63;1.20;;;;;;;;;;5072079;28;20379;-79
2022/07/08 02:07:35;;;;;;;1.77;1.15;;;;;;;;;;5072186;28;20758;-79
2022/07/08 02:10:01;;;;;;;1.55;1.23;;;;;;;;;;5072226;28;20384;-79
2022/07/08 02:12:27;;;;;;;1.75;1.33;;;;;;;;;;5072240;28;20410;-79
2022/07/08 02:15:03;;;;;;;1.27;1.17;;;;;;;;;;5072044;28;20396;-79
2022/07/08 02:17:39;;;;;;;3.63;1.30;;;;;;;;;;5072346;28;20810;-80
2022/07/08 02:20:06;;;;;;;1.58;1.25;;;;;;;;;;5072469;28;20735;-79
2022/07/08 02:22:32;;;;;;;1.60;1.30;;;;;;;;;;5072151;28;20384;-80
2022/07/08 02:24:58;;;;;;;2.00;1.10;;;;;;;;;;5072113;28;20380;-79
2022/07/08 02:27:24;;;;;;;1.23;1.13;;;;;;;;;;5071009;28;20454;-80
2022/07/08 02:29:50;;;;;;;1.40;1.30;;;;;;;;;;5072083;28;20379;-80
2022/07/08 02:32:17;;;;;;;2.20;1.42;;;;;;;;;;5065564;28;20383;-81
2022/07/08 02:34:43;;;;;;;2.00;1.23;;;;;;;;;;5069867;28;20400;-81
2022/07/08 02:37:09;;;;;;;2.70;1.95;;;;;;;;;;5065167;28;20380;-81
2022/07/08 02:39:35;;;;;;;1.98;1.77;;;;;;;;;;5070839;28;20371;-81
2022/07/08 02:42:01;;;;;;;2.20;2.00;;;;;;;;;;5070480;28;20399;-81
2022/07/08 02:44:27;;;;;;;2.30;1.67;;;;;;;;;;5070441;28;20884;-81
2022/07/08 02:46:53;;;;;;;2.50;1.50;;;;;;;;;;5071667;28;20375;-79
2022/07/08 02:49:19;;;;;;;3.17;1.70;;;;;;;;;;5073464;28;20374;-81
2022/07/08 02:51:45;;;;;;;1.95;1.75;;;;;;;;;;5075767;28;20394;-79
2022/07/08 02:54:11;;;;;;;2.15;1.95;;;;;;;;;;5066374;28;20384;-79
2022/07/08 02:56:37;;;;;;;1.65;1.50;;;;;;;;;;5073816;28;20367;-79
2022/07/08 02:59:04;;;;;;;2.00;1.40;;;;;;;;;;5075848;28;20378;-79
2022/07/08 03:01:30;;;;;;;2.13;1.70;;;;;;;;;;5075593;28;20383;-79
2022/07/08 03:03:56;;;;;;;2.40;1.52;;;;;;;;;;5075570;28;20944;-79
2022/07/08 03:06:22;;;;;;;1.50;1.38;;;;;;;;;;5075569;28;20451;-79
2022/07/08 03:08:48;;;;;;;2.53;1.58;;;;;;;;;;5075426;28;20404;-81
2022/07/08 03:11:14;;;;;;;1.75;1.65;;;;;;;;;;5075469;28;20375;-81
2022/07/08 03:13:40;;;;;;;1.80;1.50;;;;;;;;;;5075188;28;20433;-79
2022/07/08 03:16:09;;;;;;;1.83;1.30;;;;;;;;;;5075338;28;20429;-81
2022/07/08 03:18:36;;;;;;;1.55;1.35;;;;;;;;;;5075287;28;20379;-81
2022/07/08 03:21:07;;;;;;;1.42;1.33;;;;;;;;;;5075240;28;20449;-81
2022/07/08 03:23:33;;;;;;;1.38;1.27;;;;;;;;;;5074969;28;20857;-81
2022/07/08 03:25:59;;;;;;;2.20;1.30;;;;;;;;;;5075077;28;20432;-81
2022/07/08 03:28:25;;;;;;;1.93;1.40;;;;;;;;;;5073734;28;20835;-80
2022/07/08 03:30:51;;;;;;;1.52;1.42;;;;;;;;;;5074605;28;20367;-81
2022/07/08 03:33:17;;;;;;;2.42;1.33;;;;;;;;;;5083280;28;20419;-81
2022/07/08 03:35:43;;;;;;;2.10;1.40;;;;;;;;;;5095073;28;20390;-81
2022/07/08 03:38:09;;;;;;;1.70;1.40;;;;;;;;;;5095197;28;20374;-81
2022/07/08 03:43:21;;;;;;;2.45;1.50;;;;;;;;;;5095178;28;20472;-81
2022/07/08 03:45:47;;;;;;;1.87;1.70;;;;;;;;;;5095057;28;20378;-81
2022/07/08 03:48:13;;;;;;;3.17;1.38;;;;;;;;;;5094860;28;20412;-81
2022/07/08 03:50:39;;;;;;;1.52;1.40;;;;;;;;;;5094993;28;20370;-81
2022/07/08 03:53:05;;;;;;;1.47;1.37;;;;;;;;;;5094909;28;20781;-81
2022/07/08 03:55:31;;;;;;;2.20;1.40;;;;;;;;;;5094815;28;20456;-81
2022/07/08 03:57:58;;;;;;;1.70;1.30;;;;;;;;;;5094805;28;20389;-81
2022/07/08 04:00:25;;;;;;;1.63;1.20;;;;;;;;;;5091981;28;20378;-81
2022/07/08 04:02:51;;;;;;;2.17;1.10;;;;;;;;;;5074308;28;20792;-81
2022/07/08 04:05:17;;;;;;;1.30;1.00;;;;;;;;;;5074275;28;20379;-81
2022/07/08 04:07:43;;;;;;;1.83;1.20;;;;;;;;;;5074366;28;20412;-81
2022/07/08 04:10:09;;;;;;;1.20;1.10;;;;;;;;;;5074310;28;20853;-81
2022/07/08 04:12:35;;;;;;;1.10;1.00;;;;;;;;;;5074329;28;20842;-81
2022/07/08 04:15:01;;;;;;;1.20;1.10;;;;;;;;;;5074158;28;20857;-81
2022/07/08 04:17:27;;;;;;;1.90;1.13;;;;;;;;;;5058458;28;20395;-81
2022/07/08 04:19:53;;;;;;;1.40;1.17;;;;;;;;;;5074469;28;20371;-81
2022/07/08 04:22:19;;;;;;;1.90;1.30;;;;;;;;;;5074343;28;20706;-80
2022/07/08 04:24:45;;;;;;;2.45;1.13;;;;;;;;;;5074024;28;20410;-81
2022/07/08 04:27:11;;;;;;;3.20;1.30;;;;;;;;;;5070013;28;20553;-81
2022/07/08 04:29:39;;;;;;;2.17;1.45;;;;;;;;;;5073883;28;20416;-81
2022/07/08 04:32:05;;;;;;;2.50;1.50;;;;;;;;;;5056753;28;20471;-81
2022/07/08 04:34:31;;;;;;;2.15;1.48;;;;;;;;;;5055097;28;20416;-81
2022/07/08 04:36:57;;;;;;;4.82;1.20;;;;;;;;;;5067008;28;20415;-80
2022/07/08 04:39:25;;;;;;;2.30;1.30;;;;;;;;;;5071383;28;20800;-80
2022/07/08 04:41:51;;;;;;;2.80;1.30;;;;;;;;;;5060844;28;20397;-81
2022/07/08 04:44:17;;;;;;;1.63;1.20;;;;;;;;;;5054789;28;20431;-81
2022/07/08 04:46:43;;;;;;;3.63;1.50;;;;;;;;;;5054146;28;20390;-81
2022/07/08 04:49:10;;;;;;;2.60;1.40;;;;;;;;;;5053280;28;20412;-81
2022/07/08 04:51:36;;;;;;;2.80;1.20;;;;;;;;;;5053127;28;20440;-81
2022/07/08 04:54:02;;;;;;;3.47;1.77;;;;;;;;;;5055108;28;20385;-81
2022/07/08 04:56:28;;;;;;;2.50;1.40;;;;;;;;;;5057407;28;20760;-79
2022/07/08 04:58:54;;;;;;;3.30;1.30;;;;;;;;;;5070395;28;20387;-81
2022/07/08 05:01:20;;;;;;;3.13;1.38;;;;;;;;;;5066679;28;20407;-81
2022/07/08 05:03:46;;;;;;;3.03;1.45;;;;;;;;;;5067818;28;20411;-81
2022/07/08 05:06:12;;;;;;;2.83;1.38;;;;;;;;;;5070835;28;20892;-81
2022/07/08 05:08:37;;;;;;;3.00;1.47;;;;;;;;;;5072492;28;20410;-81
2022/07/08 05:11:04;;;;;;;2.53;1.58;;;;;;;;;;5072489;28;20912;-81
2022/07/08 05:13:30;;;;;;;5.72;1.75;;;;;;;;;;5070973;28;20394;-81
2022/07/08 05:15:56;;;;;;;4.55;1.83;;;;;;;;;;5072097;28;20853;-81
2022/07/08 05:18:22;;;;;;;5.10;1.85;;;;;;;;;;5072953;28;20391;-81
2022/07/08 05:20:48;;;;;;;4.63;1.50;;;;;;;;;;5072559;28;20375;-81
2022/07/08 05:23:14;;;;;;;3.40;1.50;;;;;;;;;;5071015;28;20857;-81
2022/07/08 05:25:40;;;;;;;3.55;1.40;;;;;;;;;;5071862;28;20396;-82
2022/07/08 05:28:06;;;;;;;3.65;1.67;;;;;;;;;;5072723;28;20907;-83
2022/07/08 05:30:32;;;;;;;4.65;1.67;;;;;;;;;;5071042;28;20384;-80
2022/07/08 05:32:58;;;;;;;4.70;1.67;;;;;;;;;;5071573;28;20379;-81
2022/07/08 05:35:24;;;;;;;3.50;1.63;;;;;;;;;;5070587;28;20944;-81
2022/07/08 05:37:50;;;;;;;3.85;1.73;;;;;;;;;;5069349;28;20414;-81
2022/07/08 05:40:16;;;;;;;3.42;1.65;;;;;;;;;;5071596;28;20726;-81
2022/07/08 05:42:42;;;;;;;4.05;1.70;;;;;;;;;;5071913;28;20464;-81
2022/07/08 05:45:09;;;;;;;3.60;1.57;;;;;;;;;;5072013;28;20383;-81
2022/07/08 05:47:35;;;;;;;3.88;1.55;;;;;;;;;;5071670;28;20403;-82
2022/07/08 05:50:01;;;;;;;4.68;1.60;;;;;;;;;;5070638;28;20388;-81
2022/07/08 05:52:27;;;;;;;3.67;1.58;;;;;;;;;;5071164;28;20381;-81
2022/07/08 05:54:53;;;;;;;4.65;1.70;;;;;;;;;;5072255;28;21030;-81
2022/07/08 05:57:19;;;;;;;4.32;1.80;;;;;;;;;;5072309;28;20737;-81
2022/07/08 05:59:45;;;;;;;5.63;2.03;;;;;;;;;;5072322;28;20384;-82
2022/07/08 06:02:11;;;;;;;4.65;1.92;;;;;;;;;;5072264;28;20383;-81
2022/07/08 06:04:38;;;;;;;4.43;1.83;;;;;;;;;;5070921;28;20376;-81
2022/07/08 06:07:04;;;;;;;4.38;1.70;;;;;;;;;;5066124;28;20405;-81
2022/07/08 06:09:30;;;;;;;5.40;1.80;;;;;;;;;;5071381;28;20458;-81
2022/07/08 06:11:56;;;;;;;4.60;1.80;;;;;;;;;;5071757;28;20718;-81
2022/07/08 06:14:22;;;;;;;4.43;1.65;;;;;;;;;;5072001;28;20379;-81
2022/07/08 06:16:48;;;;;;;4.78;1.60;;;;;;;;;;5071410;28;20376;-81
2022/07/08 06:19:15;;;;;;;4.25;1.58;;;;;;;;;;5069156;28;20384;-81
2022/07/08 06:21:41;;;;;;;4.32;1.83;;;;;;;;;;5071786;28;20392;-81
2022/07/08 06:24:07;;;;;;;5.25;1.85;;;;;;;;;;5074863;28;20414;-81
2022/07/08 06:26:33;;;;;;;4.40;1.70;;;;;;;;;;5078311;28;20390;-81
2022/07/08 06:28:59;;;;;;;4.70;2.00;;;;;;;;;;5078569;28;20415;-81
2022/07/08 06:31:25;;;;;;;6.65;1.73;;;;;;;;;;5077399;28;20387;-81
2022/07/08 06:33:57;;;;;;;3.97;1.60;;;;;;;;;;5076030;28;20458;-81
2022/07/08 06:36:26;;;;;;;3.47;1.67;;;;;;;;;;5077015;28;20867;-81
2022/07/08 06:38:53;;;;;;;5.10;2.28;;;;;;;;;;5078297;28;20383;-81
2022/07/08 06:41:19;;;;;;;7.13;1.73;;;;;;;;;;5078154;28;20391;-82
2022/07/08 06:43:45;;;;;;;3.70;1.50;;;;;;;;;;5078473;28;20376;-81
2022/07/08 06:46:14;;;;;;;4.75;1.88;;;;;;;;;;5078779;28;20903;-81
2022/07/08 06:48:40;;;;;;;5.70;1.67;;;;;;;;;;5078490;28;20492;-81
2022/07/08 06:51:07;;;;;;;4.03;1.77;;;;;;;;;;5078456;28;20367;-82
2022/07/08 06:56:17;;;;;;;4.65;1.98;;;;;;;;;;5074095;28;20408;-81
2022/07/08 06:58:44;;;;;;;5.00;1.80;;;;;;;;;;5078846;28;20395;-80
2022/07/08 07:01:10;;;;;;;5.80;1.98;;;;;;;;;;5076923;28;20388;-80
2022/07/08 07:03:36;;;;;;;3.37;1.70;;;;;;;;;;5083833;28;20475;-81
2022/07/08 07:06:03;;;;;;;5.20;1.70;;;;;;;;;;5098839;28;20435;-80
2022/07/08 07:08:29;;;;;;;3.90;1.95;;;;;;;;;;5098449;28;20455;-80
2022/07/08 07:10:55;;;;;;;5.37;1.80;;;;;;;;;;5081306;28;20384;-80
2022/07/08 07:13:21;;;;;;;3.47;1.52;;;;;;;;;;5078114;28;20383;-79
2022/07/08 07:15:47;;;;;;;3.85;1.85;;;;;;;;;;5078220;28;20371;-81
2022/07/08 07:18:13;;;;;;;5.65;2.00;;;;;;;;;;5076810;28;20932;-80
2022/07/08 07:20:39;;;;;;;5.15;1.75;;;;;;;;;;5071839;28;20384;-79
2022/07/08 07:23:05;;;;;;;4.07;1.83;;;;;;;;;;5064848;28;20391;-80
2022/07/08 07:25:31;;;;;;;4.80;1.65;;;;;;;;;;5077022;28;20741;-80
2022/07/08 07:27:57;;;;;;;4.20;1.70;;;;;;;;;;5077584;28;20406;-80
2022/07/08 07:30:24;;;;;;;4.53;2.05;;;;;;;;;;5077795;28;20383;-79
2022/07/08 07:32:51;;;;;;;6.10;2.28;;;;;;;;;;5078086;28;20375;-80
2022/07/08 07:35:17;;;;;;;4.53;2.00;;;;;;;;;;5076570;28;20426;-79
2022/07/08 07:37:43;;;;;;;6.18;2.00;;;;;;;;;;5091653;28;20381;-80
2022/07/08 07:40:10;;;;;;;4.25;1.70;;;;;;;;;;5085608;28;20394;-80
2022/07/08 07:42:36;;;;;;;6.22;2.00;;;;;;;;;;5058774;28;20436;-80
2022/07/08 07:45:04;;;;;;;2.85;1.38;;;;;;;;;;5061514;28;20391;-79
2022/07/08 07:47:31;;;;;;;4.93;1.70;;;;;;;;;;5069770;28;20415;-79
2022/07/08 07:49:57;;;;;;;6.30;1.80;;;;;;;;;;5073178;28;20391;-79
2022/07/08 07:52:23;;;;;;;4.70;1.90;;;;;;;;;;5072531;28;20387;-80
2022/07/08 07:54:49;;;;;;;4.53;1.80;;;;;;;;;;5073382;28;20384;-80
2022/07/08 07:57:15;;;;;;;4.43;1.88;;;;;;;;;;5070710;28;20384;-80
2022/07/08 07:59:41;;;;;;;5.10;1.60;;;;;;;;;;5066704;28;20512;-80
2022/07/08 08:02:07;;;;;;;3.83;1.52;;;;;;;;;;5073379;28;20384;-80
2022/07/08 08:04:33;;;;;;;3.47;1.40;;;;;;;;;;5073160;28;20437;-79
2022/07/08 08:07:00;;;;;;;4.75;1.70;;;;;;;;;;5073108;28;20388;-79
2022/07/08 08:09:26;;;;;;;4.15;1.50;;;;;;;;;;5073225;28;20384;-80
2022/07/08 08:11:53;;;;;;;4.78;1.75;;;;;;;;;;5072128;28;20886;-80
2022/07/08 08:14:19;;;;;;;4.00;1.90;;;;;;;;;;5073392;28;20744;-80
2022/07/08 08:16:45;;;;;;;4.40;1.50;;;;;;;;;;5061637;28;20472;-79
2022/07/08 08:19:11;;;;;;;3.05;1.50;;;;;;;;;;5089166;28;20784;-79
2022/07/08 08:21:37;;;;;;;3.00;1.50;;;;;;;;;;5094375;28;20465;-80
2022/07/08 08:24:03;;;;;;;3.13;1.50;;;;;;;;;;5094196;28;20382;-80
2022/07/08 08:26:29;;;;;;;3.75;1.70;;;;;;;;;;5094420;28;20473;-80
2022/07/08 08:28:55;;;;;;;3.83;1.50;;;;;;;;;;5094094;28;20992;-79
2022/07/08 08:31:21;;;;;;;5.75;1.75;;;;;;;;;;5068822;28;20394;-80
2022/07/08 08:33:47;;;;;;;3.85;1.30;;;;;;;;;;5059225;28;20859;-80
2022/07/08 08:36:13;;;;;;;3.67;1.50;;;;;;;;;;5058106;28;20383;-80
2022/07/08 08:38:39;;;;;;;2.88;1.23;;;;;;;;;;5054583;28;20369;-80
2022/07/08 08:41:06;;;;;;;4.97;1.40;;;;;;;;;;5054752;28;20412;-80
2022/07/08 08:43:33;;;;;;;3.10;1.70;;;;;;;;;;5055158;28;20386;-80
2022/07/08 08:45:59;;;;;;;3.92;1.30;;;;;;;;;;5068240;28;20388;-80
2022/07/08 08:48:29;;;;;;;3.30;1.60;;;;;;;;;;5067118;28;20400;-80
2022/07/08 08:50:56;;;;;;;3.08;1.30;;;;;;;;;;5055496;28;20388;-80
2022/07/08 08:53:29;;;;;;;4.33;1.70;;;;;;;;;;5058880;28;20382;-80
2022/07/08 08:56:00;;;;;;;3.90;1.45;;;;;;;;;;5073481;28;20384;-80
2022/07/08 08:58:26;;;;;;;4.22;1.25;;;;;;;;;;5063429;28;20408;-80
2022/07/08 09:00:52;;;;;;;3.08;1.20;;;;;;;;;;5062946;28;20384;-80
2022/07/08 09:03:18;;;;;;;2.83;1.02;;;;;;;;;;5071396;28;20441;-81
2022/07/08 09:05:44;;;;;;;3.27;1.10;;;;;;;;;;5071696;28;20408;-81
2022/07/08 09:08:10;;;;;;;2.00;0.90;;;;;;;;;;5071491;28;20904;-81
2022/07/08 09:10:36;;;;;;;2.10;0.90;;;;;;;;;;5064276;28;20889;-81
2022/07/08 09:13:04;;;;;;;1.73;0.80;;;;;;;;;;5061427;28;20459;-80
2022/07/08 09:15:30;;;;;;;1.90;0.70;;;;;;;;;;5056575;28;20477;-80
2022/07/08 09:17:57;;;;;;;2.03;0.75;;;;;;;;;;5056338;28;20917;-80
2022/07/08 09:20:23;;;;;;;25.95;2.13;;;;;;;;;;5056307;28;20395;-80
2022/07/08 09:22:49;;;;;;;5.78;1.10;;;;;;;;;;5065511;28;20384;-80
2022/07/08 09:25:15;;;;;;;1.90;1.08;;;;;;;;;;5071536;28;20392;-80
2022/07/08 09:27:41;;;;;;;2.63;1.13;;;;;;;;;;5070452;28;20460;-80
2022/07/08 09:30:08;;;;;;;2.17;0.90;;;;;;;;;;5072381;28;20733;-80
2022/07/08 09:32:35;;;;;;;2.38;0.93;;;;;;;;;;5060706;28;20380;-80
2022/07/08 09:35:01;;;;;;;2.17;0.82;;;;;;;;;;5056590;28;20901;-80
2022/07/08 09:37:27;;;;;;;2.10;0.85;;;;;;;;;;5058356;28;20424;-81
2022/07/08 09:39:53;;;;;;;3.03;1.10;;;;;;;;;;5074353;28;20466;-81
2022/07/08 09:42:19;;;;;;;4.85;1.27;;;;;;;;;;5070908;28;20387;-81
2022/07/08 09:44:51;;;;;;;2.17;1.08;;;;;;;;;;5071429;28;20749;-80
2022/07/08 09:47:17;;;;;;;3.07;1.20;;;;;;;;;;5069703;28;20522;-81
2022/07/08 09:49:45;;;;;;;2.20;1.00;;;;;;;;;;5061802;28;20451;-81
2022/07/08 09:52:11;;;;;;;4.15;1.95;;;;;;;;;;5067478;28;20381;-81
2022/07/08 09:54:38;;;;;;;3.33;2.13;;;;;;;;;;5067960;28;20772;-81
2022/07/08 09:57:05;;;;;;;2.40;1.20;;;;;;;;;;5066146;28;20886;-81
2022/07/08 09:59:32;;;;;;;2.97;1.10;;;;;;;;;;5065386;28;20914;-81
2022/07/08 10:01:58;;;;;;;4.03;1.15;;;;;;;;;;5065204;28;20375;-81
2022/07/08 10:04:25;;;;;;;2.42;1.02;;;;;;;;;;5072119;28;20721;-81
2022/07/08 10:06:51;;;;;;;2.78;1.20;;;;;;;;;;5070669;28;20384;-79
2022/07/08 10:09:18;;;;;;;2.45;1.10;;;;;;;;;;5056467;28;20416;-80
2022/07/08 10:11:44;;;;;;;1.83;0.93;;;;;;;;;;5063320;28;20468;-80
2022/07/08 10:14:10;;;;;;;2.88;1.02;;;;;;;;;;5092302;28;20378;-82
2022/07/08 10:16:39;;;;;;;3.88;1.02;;;;;;;;;;5092459;28;20885;-81
2022/07/08 10:19:08;;;;;;;2.72;1.27;;;;;;;;;;5092324;28;20374;-80
2022/07/08 10:21:35;;;;;;;4.70;1.70;;;;;;;;;;5092324;28;20382;-80
2022/07/08 10:24:02;;;;;;;5.57;1.83;;;;;;;;;;5077470;28;20849;-80
2022/07/08 10:26:30;;;;;;;4.25;2.00;;;;;;;;;;5059901;28;20384;-80
2022/07/08 10:29:15;;;;;;;3.00;1.70;;;;;;;;;;5068200;28;20407;-80
2022/07/08 10:31:50;;;;;;;4.35;2.00;;;;;;;;;;5066768;28;20384;-80
2022/07/08 10:34:29;;;;;;;4.43;1.30;;;;;;;;;;5070705;28;20383;-80
2022/07/08 10:36:55;;;;;;;2.58;1.35;;;;;;;;;;5063583;28;20471;-80
2022/07/08 10:39:28;;;;;;;3.50;1.80;;;;;;;;;;5070668;28;20503;-80
2022/07/08 10:41:57;;;;;;;4.35;2.03;;;;;;;;;;5072153;28;20375;-80
2022/07/08 10:44:59;;;;;;;3.47;2.30;;;;;;;;;;5070058;28;20383;-80
2022/07/08 10:47:28;;;;;;;4.88;2.50;;;;;;;;;;5047734;28;20436;-80
2022/07/08 10:50:02;;;;;;;5.15;2.50;;;;;;;;;;5067713;28;20865;-80
2022/07/08 10:52:32;;;;;;;3.80;2.20;;;;;;;;;;5072272;28;20399;-81
2022/07/08 10:55:17;;;;;;;7.07;2.70;;;;;;;;;;5075735;28;20774;-81
2022/07/08 10:58:01;;;;;;;4.72;1.90;;;;;;;;;;5091885;28;20374;-81
2022/07/08 11:00:27;;;;;;;3.77;1.83;;;;;;;;;;5088330;28;20721;-80
2022/07/08 11:02:53;;;;;;;2.95;1.30;;;;;;;;;;5071908;28;20411;-81
2022/07/08 11:05:37;;;;;;;2.55;1.48;;;;;;;;;;5071624;28;20927;-82
2022/07/08 11:08:21;;;;;;;3.28;2.00;;;;;;;;;;5071543;28;20411;-82
2022/07/08 11:10:48;;;;;;;4.33;2.50;;;;;;;;;;5074098;28;20371;-82
2022/07/08 11:13:14;;;;;;;3.72;1.90;;;;;;;;;;5075278;28;20837;-79
2022/07/08 11:15:40;;;;;;;4.20;1.90;;;;;;;;;;5075208;28;20433;-82
2022/07/08 11:18:07;;;;;;;3.20;2.00;;;;;;;;;;5075425;28;20376;-82
2022/07/08 11:20:35;;;;;;;2.00;1.20;;;;;;;;;;5072281;28;20423;-81
2022/07/08 11:23:04;;;;;;;3.97;1.40;;;;;;;;;;5074246;28;20368;-81
2022/07/08 11:25:30;;;;;;;3.05;1.52;;;;;;;;;;5074871;28;21003;-81
2022/07/08 11:27:56;;;;;;;2.65;1.30;;;;;;;;;;5074609;28;20494;-81
2022/07/08 11:30:23;;;;;;;3.63;1.52;;;;;;;;;;5075160;28;20447;-81
2022/07/08 11:32:49;;;;;;;3.67;1.45;;;;;;;;;;5072461;28;20392;-82
2022/07/08 11:35:17;;;;;;;3.65;1.50;;;;;;;;;;5073392;28;20399;-82
2022/07/08 11:37:44;;;;;;;2.30;1.30;;;;;;;;;;5073628;28;20388;-82
2022/07/08 11:40:13;;;;;;;2.22;1.10;;;;;;;;;;5073619;28;20467;-81
2022/07/08 11:42:40;;;;;;;2.15;1.10;;;;;;;;;;5073406;28;20376;-82
2022/07/08 11:45:07;;;;;;;3.83;1.20;;;;;;;;;;5073509;28;20861;-81
2022/07/08 11:47:33;;;;;;;2.10;1.10;;;;;;;;;;5073078;28;20407;-82
2022/07/08 11:49:59;;;;;;;2.60;1.30;;;;;;;;;;5071601;28;20386;-81
2022/07/08 11:52:27;;;;;;;2.67;0.90;;;;;;;;;;5060270;28;20389;-81
2022/07/08 11:54:53;;;;;;;1.88;0.80;;;;;;;;;;5060238;28;20408;-81
2022/07/08 11:57:20;;;;;;;1.92;0.80;;;;;;;;;;5053008;28;20435;-81
2022/07/08 11:59:47;;;;;;;1.75;0.90;;;;;;;;;;5057425;28;20389;-82
2022/07/08 12:02:13;;;;;;;1.55;0.80;;;;;;;;;;5074394;28;20736;-82
2022/07/08 12:04:43;;;;;;;2.27;0.77;;;;;;;;;;5074482;28;20789;-82
2022/07/08 12:07:39;;;;;;;2.08;0.88;;;;;;;;;;5074481;28;20376;-82
2022/07/08 12:10:05;;;;;;;2.35;1.00;;;;;;;;;;5069719;28;20423;-82
2022/07/08 12:12:33;;;;;;;5.03;0.90;;;;;;;;;;5074378;28;20929;-82
2022/07/08 12:15:15;;;;;;;1.67;0.73;;;;;;;;;;5074292;28;20379;-81
2022/07/08 12:17:41;;;;;;;2.87;0.87;;;;;;;;;;5074189;28;20463;-81
2022/07/08 12:20:10;;;;;;;5.87;0.80;;;;;;;;;;5071743;28;20372;-81
2022/07/08 12:22:48;;;;;;;1.40;0.70;;;;;;;;;;5053816;28;20377;-81
2022/07/08 12:25:18;;;;;;;0.82;0.60;;;;;;;;;;5065910;28;20376;-81
2022/07/08 12:27:45;;;;;;;1.48;0.70;;;;;;;;;;5071011;28;20426;-82
2022/07/08 12:30:11;;;;;;;2.38;0.80;;;;;;;;;;5054339;28;20524;-82
2022/07/08 12:32:38;;;;;;;2.42;0.80;;;;;;;;;;5054927;28;20385;-82
2022/07/08 12:35:05;;;;;;;1.83;0.73;;;;;;;;;;5065889;28;20874;-82
2022/07/08 12:37:31;;;;;;;1.63;0.70;;;;;;;;;;5073936;28;20383;-82
2022/07/08 12:39:57;;;;;;;2.25;0.80;;;;;;;;;;5073840;28;20382;-82
2022/07/08 12:42:26;;;;;;;1.90;0.90;;;;;;;;;;5072358;28;20387;-82
2022/07/08 12:44:54;;;;;;;1.88;0.65;;;;;;;;;;5069594;28;20376;-81
2022/07/08 12:47:20;;;;;;;2.23;0.80;;;;;;;;;;5073708;28;20961;-81
2022/07/08 12:49:47;;;;;;;1.60;0.90;;;;;;;;;;5073653;28;20872;-81
2022/07/08 12:52:13;;;;;;;1.92;0.82;;;;;;;;;;5063878;28;20407;-81
2022/07/08 12:54:40;;;;;;;2.75;0.80;;;;;;;;;;5065479;28;20771;-82
2022/07/08 12:57:07;;;;;;;1.70;0.88;;;;;;;;;;5053102;28;20457;-82
2022/07/08 12:59:33;;;;;;;1.60;0.70;;;;;;;;;;5065047;28;20380;-82
2022/07/08 13:01:59;;;;;;;2.03;0.70;;;;;;;;;;5052812;28;20377;-82
2022/07/08 13:04:26;;;;;;;2.63;1.00;;;;;;;;;;5054847;28;20393;-82
2022/07/08 13:06:53;;;;;;;2.45;0.90;;;;;;;;;;5058882;28;20388;-82
2022/07/08 13:09:19;;;;;;;1.40;0.63;;;;;;;;;;5057803;28;20405;-82
2022/07/08 13:11:47;;;;;;;2.65;0.70;;;;;;;;;;5054472;28;20377;-82
2022/07/08 13:14:13;;;;;;;1.70;0.70;;;;;;;;;;5054990;28;21906;-82
2022/07/08 13:16:39;;;;;;;1.77;0.80;;;;;;;;;;5060451;28;20863;-81
2022/07/08 13:19:06;;;;;;;2.28;0.80;;;;;;;;;;5056867;28;20379;-81
2022/07/08 13:21:32;;;;;;;2.10;0.90;;;;;;;;;;5054018;28;20472;-81
2022/07/08 13:23:59;;;;;;;1.65;0.75;;;;;;;;;;5054956;28;20389;-81
2022/07/08 13:26:25;;;;;;;1.42;0.60;;;;;;;;;;5054123;28;20381;-81
2022/07/08 13:28:52;;;;;;;1.88;0.80;;;;;;;;;;5053732;28;20419;-81
2022/07/08 13:31:19;;;;;;;2.22;0.70;;;;;;;;;;5059821;28;20391;-82
2022/07/08 13:33:47;;;;;;;3.00;0.85;;;;;;;;;;5062550;28;20381;-82
2022/07/08 13:36:14;;;;;;;1.73;0.90;;;;;;;;;;5074990;28;20378;-82
2022/07/08 13:38:40;;;;;;;1.50;0.70;;;;;;;;;;5076545;28;20382;-82
2022/07/08 13:41:06;;;;;;;3.00;0.90;;;;;;;;;;5069194;28;20401;-82
2022/07/08 13:43:32;;;;;;;1.48;0.80;;;;;;;;;;5072607;28;20427;-82
2022/07/08 13:45:58;;;;;;;2.25;0.85;;;;;;;;;;5072596;28;20387;-82
2022/07/08 13:48:24;;;;;;;2.60;0.85;;;;;;;;;;5072479;28;20412;-81
2022/07/08 13:50:50;;;;;;;4.30;0.85;;;;;;;;;;5070770;28;20379;-81
2022/07/08 13:53:16;;;;;;;1.95;0.77;;;;;;;;;;5070833;28;20425;-82
2022/07/08 13:55:42;;;;;;;3.08;1.08;;;;;;;;;;5062367;28;20408;-82
2022/07/08 13:58:08;;;;;;;1.63;0.82;;;;;;;;;;5069380;28;20382;-81
2022/07/08 14:00:34;;;;;;;2.65;0.90;;;;;;;;;;5070769;28;20462;-82
2022/07/08 14:03:00;;;;;;;2.85;1.13;;;;;;;;;;5066653;28;20433;-82
2022/07/08 14:05:26;;;;;;;2.45;1.00;;;;;;;;;;5067174;28;20413;-81
2022/07/08 14:07:52;;;;;;;2.08;0.77;;;;;;;;;;5068099;28;20928;-82
2022/07/08 14:10:18;;;;;;;2.33;1.00;;;;;;;;;;5072128;28;20408;-82
2022/07/08 14:12:44;;;;;;;3.13;0.90;;;;;;;;;;5069138;28;20424;-81
2022/07/08 14:15:10;;;;;;;1.73;0.80;;;;;;;;;;5067431;28;20491;-81
2022/07/08 14:17:36;;;;;;;2.70;0.85;;;;;;;;;;5060147;28;20368;-81
2022/07/08 14:20:05;;;;;;;3.47;0.90;;;;;;;;;;5069014;28;20385;-82
2022/07/08 14:22:35;;;;;;;2.93;1.00;;;;;;;;;;5062757;28;20385;-80
2022/07/08 14:25:01;;;;;;;2.47;0.88;;;;;;;;;;5056421;28;20380;-80
2022/07/08 14:27:27;;;;;;;2.92;1.00;;;;;;;;;;5065829;28;20390;-80
2022/07/08 14:29:53;;;;;;;1.92;0.90;;;;;;;;;;5071665;28;20380;-80
2022/07/08 14:32:19;;;;;;;3.95;1.40;;;;;;;;;;5070907;28;20438;-81
2022/07/08 14:34:45;;;;;;;2.38;1.00;;;;;;;;;;5070159;28;20403;-81
2022/07/08 14:37:11;;;;;;;1.73;0.90;;;;;;;;;;5069847;28;20722;-82
2022/07/08 14:39:37;;;;;;;2.55;1.08;;;;;;;;;;5071886;28;20379;-85
2022/07/08 14:42:04;;;;;;;2.60;0.90;;;;;;;;;;5072080;28;20825;-82
2022/07/08 14:44:30;;;;;;;1.98;1.08;;;;;;;;;;5072070;28;20395;-81
2022/07/08 14:46:56;;;;;;;2.05;0.90;;;;;;;;;;5074710;28;20383;-84